Time;durP1;ratioP1;P1;durP2;ratioP2;P2;SDS_P1;SDS_P2;PMS_P1;PMS_P2;Temp;Humidity;BMP_temperature;BMP_pressure;BME280_temperature;BME280_humidity;BME280_pressure;Samples;Min_cycle;Max_cycle;Signal;HPM_P1;HPM_P2
2021/12/15 00:00:22;;;;;;;;;;;4.4;79.7;;;;;;;;;
2021/12/15 00:05:08;;;;;;;;;;;4.4;79.9;;;;;;;;;
2021/12/15 00:10:07;;;;;;;;;;;4.3;80.2;;;;;;;;;
2021/12/15 00:15:07;;;;;;;;;;;4.3;80.3;;;;;;;;;
2021/12/15 00:20:09;;;;;;;;;;;4.3;80.9;;;;;;;;;
2021/12/15 00:25:08;;;;;;;;;;;4.4;80.4;;;;;;;;;
2021/12/15 00:30:08;;;;;;;;;;;4.4;80.2;;;;;;;;;
2021/12/15 00:35:08;;;;;;;;;;;4.4;80.0;;;;;;;;;
2021/12/15 00:40:09;;;;;;;;;;;4.3;80.4;;;;;;;;;
2021/12/15 00:45:07;;;;;;;;;;;4.4;80.4;;;;;;;;;
2021/12/15 00:50:09;;;;;;;;;;;4.4;79.7;;;;;;;;;
2021/12/15 00:55:10;;;;;;;;;;;4.4;79.3;;;;;;;;;
2021/12/15 01:00:09;;;;;;;;;;;4.3;80.3;;;;;;;;;
2021/12/15 01:05:08;;;;;;;;;;;4.2;80.7;;;;;;;;;
2021/12/15 01:10:08;;;;;;;;;;;4.3;80.2;;;;;;;;;
2021/12/15 01:20:08;;;;;;;;;;;4.3;80.1;;;;;;;;;
2021/12/15 01:25:09;;;;;;;;;;;4.3;80.7;;;;;;;;;
2021/12/15 01:30:08;;;;;;;;;;;4.4;79.6;;;;;;;;;
2021/12/15 01:35:07;;;;;;;;;;;4.4;79.4;;;;;;;;;
2021/12/15 01:40:10;;;;;;;;;;;4.3;79.5;;;;;;;;;
2021/12/15 01:50:08;;;;;;;;;;;4.3;79.6;;;;;;;;;
2021/12/15 01:55:09;;;;;;;;;;;4.2;80.2;;;;;;;;;
2021/12/15 02:00:09;;;;;;;;;;;4.3;79.1;;;;;;;;;
2021/12/15 02:05:07;;;;;;;;;;;4.3;79.3;;;;;;;;;
2021/12/15 02:10:07;;;;;;;;;;;4.4;79.4;;;;;;;;;
2021/12/15 02:15:09;;;;;;;;;;;4.3;79.0;;;;;;;;;
2021/12/15 02:20:09;;;;;;;;;;;4.4;79.3;;;;;;;;;
2021/12/15 02:25:11;;;;;;;;;;;4.3;79.5;;;;;;;;;
2021/12/15 02:30:20;;;;;;;;;;;4.4;79.3;;;;;;;;;
2021/12/15 02:40:10;;;;;;;;;;;4.4;79.6;;;;;;;;;
2021/12/15 02:45:08;;;;;;;;;;;4.4;79.1;;;;;;;;;
2021/12/15 02:50:08;;;;;;;;;;;4.4;79.2;;;;;;;;;
2021/12/15 02:55:07;;;;;;;;;;;4.4;79.0;;;;;;;;;
2021/12/15 03:00:17;;;;;;;;;;;4.4;78.5;;;;;;;;;
2021/12/15 03:05:12;;;;;;;;;;;4.4;79.1;;;;;;;;;
2021/12/15 03:20:09;;;;;;;;;;;4.4;79.5;;;;;;;;;
2021/12/15 03:25:07;;;;;;;;;;;4.4;79.6;;;;;;;;;
2021/12/15 03:35:19;;;;;;;;;;;4.3;79.6;;;;;;;;;
2021/12/15 03:40:08;;;;;;;;;;;4.2;79.9;;;;;;;;;
2021/12/15 03:45:09;;;;;;;;;;;4.2;80.7;;;;;;;;;
2021/12/15 03:50:08;;;;;;;;;;;4.3;81.2;;;;;;;;;
2021/12/15 03:55:08;;;;;;;;;;;4.3;81.7;;;;;;;;;
2021/12/15 04:00:08;;;;;;;;;;;4.3;81.9;;;;;;;;;
2021/12/15 04:05:10;;;;;;;;;;;4.3;81.7;;;;;;;;;
2021/12/15 04:10:09;;;;;;;;;;;4.3;82.2;;;;;;;;;
2021/12/15 04:15:20;;;;;;;;;;;4.3;83.4;;;;;;;;;
2021/12/15 04:20:09;;;;;;;;;;;4.3;82.9;;;;;;;;;
2021/12/15 04:25:08;;;;;;;;;;;4.2;83.5;;;;;;;;;
2021/12/15 04:30:09;;;;;;;;;;;4.3;83.2;;;;;;;;;
2021/12/15 04:35:07;;;;;;;;;;;4.3;82.6;;;;;;;;;
2021/12/15 04:40:09;;;;;;;;;;;4.3;83.3;;;;;;;;;
2021/12/15 04:45:07;;;;;;;;;;;4.4;83.1;;;;;;;;;
2021/12/15 04:50:08;;;;;;;;;;;4.3;83.6;;;;;;;;;
2021/12/15 04:55:08;;;;;;;;;;;4.2;83.5;;;;;;;;;
2021/12/15 05:00:11;;;;;;;;;;;4.3;83.4;;;;;;;;;
2021/12/15 05:05:08;;;;;;;;;;;4.3;83.1;;;;;;;;;
2021/12/15 05:10:08;;;;;;;;;;;4.2;83.3;;;;;;;;;
2021/12/15 05:15:07;;;;;;;;;;;4.1;84.1;;;;;;;;;
2021/12/15 05:20:09;;;;;;;;;;;4.2;84.2;;;;;;;;;
2021/12/15 05:25:08;;;;;;;;;;;4.2;84.3;;;;;;;;;
2021/12/15 05:30:08;;;;;;;;;;;4.2;84.0;;;;;;;;;
2021/12/15 05:35:10;;;;;;;;;;;4.2;84.6;;;;;;;;;
2021/12/15 05:40:09;;;;;;;;;;;4.2;84.3;;;;;;;;;
2021/12/15 05:45:07;;;;;;;;;;;4.3;84.5;;;;;;;;;
2021/12/15 05:50:08;;;;;;;;;;;4.2;84.4;;;;;;;;;
2021/12/15 05:55:09;;;;;;;;;;;4.2;84.3;;;;;;;;;
2021/12/15 06:00:09;;;;;;;;;;;4.3;84.2;;;;;;;;;
2021/12/15 06:05:08;;;;;;;;;;;4.3;83.9;;;;;;;;;
2021/12/15 06:10:09;;;;;;;;;;;4.3;84.5;;;;;;;;;
2021/12/15 06:15:08;;;;;;;;;;;4.2;85.4;;;;;;;;;
2021/12/15 06:20:07;;;;;;;;;;;4.2;85.6;;;;;;;;;
2021/12/15 06:25:08;;;;;;;;;;;4.3;85.4;;;;;;;;;
2021/12/15 06:30:07;;;;;;;;;;;4.3;85.5;;;;;;;;;
2021/12/15 06:40:09;;;;;;;;;;;4.4;85.1;;;;;;;;;
2021/12/15 06:45:08;;;;;;;;;;;4.4;85.0;;;;;;;;;
2021/12/15 07:00:09;;;;;;;;;;;4.5;83.3;;;;;;;;;
2021/12/15 07:05:08;;;;;;;;;;;4.4;83.4;;;;;;;;;
2021/12/15 07:10:09;;;;;;;;;;;4.5;83.0;;;;;;;;;
2021/12/15 07:15:08;;;;;;;;;;;4.5;82.9;;;;;;;;;
2021/12/15 07:20:30;;;;;;;;;;;4.5;82.1;;;;;;;;;
2021/12/15 07:25:08;;;;;;;;;;;4.5;82.1;;;;;;;;;
2021/12/15 07:30:08;;;;;;;;;;;4.5;82.5;;;;;;;;;
2021/12/15 07:35:09;;;;;;;;;;;4.5;82.2;;;;;;;;;
2021/12/15 07:40:11;;;;;;;;;;;4.5;81.9;;;;;;;;;
2021/12/15 07:45:08;;;;;;;;;;;4.5;82.0;;;;;;;;;
2021/12/15 07:50:07;;;;;;;;;;;4.6;82.0;;;;;;;;;
2021/12/15 07:55:07;;;;;;;;;;;4.5;83.0;;;;;;;;;
2021/12/15 08:00:07;;;;;;;;;;;4.5;83.6;;;;;;;;;
2021/12/15 08:05:07;;;;;;;;;;;4.5;83.9;;;;;;;;;
2021/12/15 08:15:08;;;;;;;;;;;4.5;83.8;;;;;;;;;
2021/12/15 08:20:08;;;;;;;;;;;4.5;84.2;;;;;;;;;
2021/12/15 08:25:08;;;;;;;;;;;4.6;83.8;;;;;;;;;
2021/12/15 08:30:08;;;;;;;;;;;4.6;83.5;;;;;;;;;
2021/12/15 08:35:07;;;;;;;;;;;4.7;83.8;;;;;;;;;
2021/12/15 08:40:07;;;;;;;;;;;4.6;83.8;;;;;;;;;
2021/12/15 08:45:07;;;;;;;;;;;4.6;83.0;;;;;;;;;
2021/12/15 08:50:09;;;;;;;;;;;4.6;83.7;;;;;;;;;
2021/12/15 08:55:09;;;;;;;;;;;4.6;83.2;;;;;;;;;
2021/12/15 09:00:07;;;;;;;;;;;4.5;84.0;;;;;;;;;
2021/12/15 09:05:07;;;;;;;;;;;4.5;83.7;;;;;;;;;
2021/12/15 09:10:09;;;;;;;;;;;4.5;83.5;;;;;;;;;
2021/12/15 09:15:08;;;;;;;;;;;4.6;84.1;;;;;;;;;
2021/12/15 09:20:08;;;;;;;;;;;4.6;83.6;;;;;;;;;
2021/12/15 09:25:08;;;;;;;;;;;4.6;83.5;;;;;;;;;
2021/12/15 09:30:12;;;;;;;;;;;4.6;83.9;;;;;;;;;
2021/12/15 09:35:07;;;;;;;;;;;4.7;84.3;;;;;;;;;
2021/12/15 09:40:08;;;;;;;;;;;4.8;83.6;;;;;;;;;
2021/12/15 09:45:21;;;;;;;;;;;4.8;83.7;;;;;;;;;
2021/12/15 10:05:19;;;;;;;;;;;4.9;83.1;;;;;;;;;
2021/12/15 10:20:08;;;;;;;;;;;4.9;82.1;;;;;;;;;
2021/12/15 10:25:11;;;;;;;;;;;4.9;81.5;;;;;;;;;
2021/12/15 10:30:13;;;;;;;;;;;4.9;81.9;;;;;;;;;
2021/12/15 10:35:10;;;;;;;;;;;4.9;81.5;;;;;;;;;
2021/12/15 10:40:08;;;;;;;;;;;5.0;81.2;;;;;;;;;
2021/12/15 10:45:08;;;;;;;;;;;5.0;81.6;;;;;;;;;
2021/12/15 10:50:10;;;;;;;;;;;5.1;80.9;;;;;;;;;
2021/12/15 10:55:07;;;;;;;;;;;5.1;80.1;;;;;;;;;
2021/12/15 11:00:10;;;;;;;;;;;5.2;79.7;;;;;;;;;
2021/12/15 11:05:08;;;;;;;;;;;5.1;79.3;;;;;;;;;
2021/12/15 11:10:10;;;;;;;;;;;5.1;79.9;;;;;;;;;
2021/12/15 11:15:09;;;;;;;;;;;5.1;78.5;;;;;;;;;
2021/12/15 11:20:09;;;;;;;;;;;5.2;78.7;;;;;;;;;
2021/12/15 11:25:10;;;;;;;;;;;5.0;77.1;;;;;;;;;
2021/12/15 11:30:10;;;;;;;;;;;5.1;77.4;;;;;;;;;
2021/12/15 11:35:09;;;;;;;;;;;5.1;78.1;;;;;;;;;
2021/12/15 11:40:07;;;;;;;;;;;5.0;77.9;;;;;;;;;
2021/12/15 11:45:08;;;;;;;;;;;5.0;78.3;;;;;;;;;
2021/12/15 11:50:10;;;;;;;;;;;5.1;78.7;;;;;;;;;
2021/12/15 11:55:19;;;;;;;;;;;4.9;78.5;;;;;;;;;
2021/12/15 12:00:09;;;;;;;;;;;5.0;78.5;;;;;;;;;
2021/12/15 12:05:08;;;;;;;;;;;5.0;78.9;;;;;;;;;
2021/12/15 12:10:10;;;;;;;;;;;4.9;79.3;;;;;;;;;
2021/12/15 12:15:08;;;;;;;;;;;5.0;78.6;;;;;;;;;
2021/12/15 12:20:09;;;;;;;;;;;5.0;79.0;;;;;;;;;
2021/12/15 12:25:10;;;;;;;;;;;4.9;79.8;;;;;;;;;
2021/12/15 12:30:09;;;;;;;;;;;4.9;79.3;;;;;;;;;
2021/12/15 12:35:08;;;;;;;;;;;4.9;79.4;;;;;;;;;
2021/12/15 12:40:19;;;;;;;;;;;5.0;79.4;;;;;;;;;
2021/12/15 12:45:08;;;;;;;;;;;5.1;78.9;;;;;;;;;
2021/12/15 12:50:33;;;;;;;;;;;5.0;78.8;;;;;;;;;
2021/12/15 13:00:09;;;;;;;;;;;4.9;79.0;;;;;;;;;
2021/12/15 13:05:24;;;;;;;;;;;5.0;78.9;;;;;;;;;
2021/12/15 13:10:07;;;;;;;;;;;5.0;79.0;;;;;;;;;
2021/12/15 13:15:08;;;;;;;;;;;5.0;79.3;;;;;;;;;
2021/12/15 13:20:21;;;;;;;;;;;5.1;78.8;;;;;;;;;
2021/12/15 13:30:24;;;;;;;;;;;5.0;79.2;;;;;;;;;
2021/12/15 13:35:22;;;;;;;;;;;5.1;78.7;;;;;;;;;
2021/12/15 13:40:10;;;;;;;;;;;5.0;78.3;;;;;;;;;
2021/12/15 13:45:24;;;;;;;;;;;5.0;78.4;;;;;;;;;
2021/12/15 13:50:14;;;;;;;;;;;5.0;78.5;;;;;;;;;
2021/12/15 13:55:11;;;;;;;;;;;5.0;78.7;;;;;;;;;
2021/12/15 14:00:14;;;;;;;;;;;5.1;78.6;;;;;;;;;
2021/12/15 14:05:18;;;;;;;;;;;5.0;78.3;;;;;;;;;
2021/12/15 14:10:47;;;;;;;;;;;5.1;78.3;;;;;;;;;
2021/12/15 14:15:12;;;;;;;;;;;5.1;78.0;;;;;;;;;
2021/12/15 14:20:09;;;;;;;;;;;5.2;78.0;;;;;;;;;
2021/12/15 14:25:07;;;;;;;;;;;5.2;78.2;;;;;;;;;
2021/12/15 14:30:07;;;;;;;;;;;5.2;78.3;;;;;;;;;
2021/12/15 14:35:15;;;;;;;;;;;5.2;78.3;;;;;;;;;
2021/12/15 14:40:12;;;;;;;;;;;5.1;78.6;;;;;;;;;
2021/12/15 14:45:08;;;;;;;;;;;5.2;78.8;;;;;;;;;
2021/12/15 14:50:10;;;;;;;;;;;5.0;78.8;;;;;;;;;
2021/12/15 14:55:12;;;;;;;;;;;5.1;79.0;;;;;;;;;
2021/12/15 15:00:10;;;;;;;;;;;5.0;78.7;;;;;;;;;
2021/12/15 15:05:08;;;;;;;;;;;5.1;78.7;;;;;;;;;
2021/12/15 15:10:09;;;;;;;;;;;5.1;78.5;;;;;;;;;
2021/12/15 15:15:09;;;;;;;;;;;5.1;78.5;;;;;;;;;
2021/12/15 15:20:11;;;;;;;;;;;5.0;79.0;;;;;;;;;
2021/12/15 15:30:09;;;;;;;;;;;5.1;78.7;;;;;;;;;
2021/12/15 15:35:09;;;;;;;;;;;5.1;78.3;;;;;;;;;
2021/12/15 15:40:13;;;;;;;;;;;5.1;78.6;;;;;;;;;
2021/12/15 15:45:18;;;;;;;;;;;5.0;79.2;;;;;;;;;
2021/12/15 15:50:07;;;;;;;;;;;5.0;79.5;;;;;;;;;
2021/12/15 15:55:07;;;;;;;;;;;5.2;81.1;;;;;;;;;
2021/12/15 16:00:08;;;;;;;;;;;5.2;79.5;;;;;;;;;
2021/12/15 16:05:07;;;;;;;;;;;5.3;79.3;;;;;;;;;
2021/12/15 16:10:09;;;;;;;;;;;5.2;79.2;;;;;;;;;
2021/12/15 16:15:08;;;;;;;;;;;5.2;78.6;;;;;;;;;
2021/12/15 16:20:14;;;;;;;;;;;5.2;79.5;;;;;;;;;
2021/12/15 16:25:10;;;;;;;;;;;5.2;78.6;;;;;;;;;
2021/12/15 16:30:08;;;;;;;;;;;5.1;79.1;;;;;;;;;
2021/12/15 16:35:09;;;;;;;;;;;5.2;79.2;;;;;;;;;
2021/12/15 16:40:08;;;;;;;;;;;5.2;78.5;;;;;;;;;
2021/12/15 16:45:11;;;;;;;;;;;5.1;79.1;;;;;;;;;
2021/12/15 16:55:10;;;;;;;;;;;5.0;78.6;;;;;;;;;
2021/12/15 17:00:09;;;;;;;;;;;5.0;78.5;;;;;;;;;
2021/12/15 17:05:09;;;;;;;;;;;5.0;78.2;;;;;;;;;
2021/12/15 17:10:08;;;;;;;;;;;5.0;77.6;;;;;;;;;
2021/12/15 17:15:14;;;;;;;;;;;5.0;77.5;;;;;;;;;
2021/12/15 17:25:09;;;;;;;;;;;4.9;77.6;;;;;;;;;
2021/12/15 17:30:23;;;;;;;;;;;4.9;77.7;;;;;;;;;
2021/12/15 17:35:13;;;;;;;;;;;5.0;77.8;;;;;;;;;
2021/12/15 17:40:07;;;;;;;;;;;4.9;78.4;;;;;;;;;
2021/12/15 17:45:11;;;;;;;;;;;4.9;78.0;;;;;;;;;
2021/12/15 17:50:10;;;;;;;;;;;4.9;78.2;;;;;;;;;
2021/12/15 17:55:08;;;;;;;;;;;4.9;78.2;;;;;;;;;
2021/12/15 18:00:08;;;;;;;;;;;4.9;78.3;;;;;;;;;
2021/12/15 18:05:08;;;;;;;;;;;4.9;78.5;;;;;;;;;
2021/12/15 18:10:14;;;;;;;;;;;4.9;78.8;;;;;;;;;
2021/12/15 18:15:07;;;;;;;;;;;4.9;78.7;;;;;;;;;
2021/12/15 18:20:07;;;;;;;;;;;4.9;79.1;;;;;;;;;
2021/12/15 18:25:09;;;;;;;;;;;4.8;79.3;;;;;;;;;
2021/12/15 18:30:07;;;;;;;;;;;4.9;79.0;;;;;;;;;
2021/12/15 18:35:08;;;;;;;;;;;4.9;79.0;;;;;;;;;
2021/12/15 18:40:08;;;;;;;;;;;4.9;79.7;;;;;;;;;
2021/12/15 18:45:08;;;;;;;;;;;4.9;79.8;;;;;;;;;
2021/12/15 18:50:13;;;;;;;;;;;4.9;79.4;;;;;;;;;
2021/12/15 18:55:08;;;;;;;;;;;4.8;79.9;;;;;;;;;
2021/12/15 19:00:07;;;;;;;;;;;4.9;79.8;;;;;;;;;
2021/12/15 19:05:09;;;;;;;;;;;4.9;79.8;;;;;;;;;
2021/12/15 19:10:10;;;;;;;;;;;4.7;80.0;;;;;;;;;
2021/12/15 19:15:10;;;;;;;;;;;4.9;80.0;;;;;;;;;
2021/12/15 19:20:08;;;;;;;;;;;4.9;80.2;;;;;;;;;
2021/12/15 19:25:07;;;;;;;;;;;4.9;80.9;;;;;;;;;
2021/12/15 19:30:15;;;;;;;;;;;5.0;80.6;;;;;;;;;
2021/12/15 19:35:07;;;;;;;;;;;4.9;80.7;;;;;;;;;
2021/12/15 19:45:09;;;;;;;;;;;4.9;80.8;;;;;;;;;
2021/12/15 19:50:09;;;;;;;;;;;4.8;81.3;;;;;;;;;
2021/12/15 19:55:09;;;;;;;;;;;4.8;81.0;;;;;;;;;
2021/12/15 20:00:09;;;;;;;;;;;4.8;80.4;;;;;;;;;
2021/12/15 20:05:07;;;;;;;;;;;4.8;80.8;;;;;;;;;
2021/12/15 20:10:08;;;;;;;;;;;4.8;81.5;;;;;;;;;
2021/12/15 20:15:09;;;;;;;;;;;4.8;81.9;;;;;;;;;
2021/12/15 20:20:10;;;;;;;;;;;4.8;81.2;;;;;;;;;
2021/12/15 20:25:13;;;;;;;;;;;4.7;81.6;;;;;;;;;
2021/12/15 20:30:09;;;;;;;;;;;4.7;82.3;;;;;;;;;
2021/12/15 20:35:07;;;;;;;;;;;4.7;82.0;;;;;;;;;
2021/12/15 20:40:08;;;;;;;;;;;4.7;82.4;;;;;;;;;
2021/12/15 20:45:09;;;;;;;;;;;4.7;81.1;;;;;;;;;
2021/12/15 20:50:08;;;;;;;;;;;4.7;81.8;;;;;;;;;
2021/12/15 20:55:07;;;;;;;;;;;4.6;82.8;;;;;;;;;
2021/12/15 21:00:09;;;;;;;;;;;4.5;82.3;;;;;;;;;
2021/12/15 21:05:09;;;;;;;;;;;4.6;82.8;;;;;;;;;
2021/12/15 21:10:08;;;;;;;;;;;4.5;82.6;;;;;;;;;
2021/12/15 21:15:08;;;;;;;;;;;4.5;82.7;;;;;;;;;
2021/12/15 21:20:09;;;;;;;;;;;4.6;83.0;;;;;;;;;
2021/12/15 21:25:07;;;;;;;;;;;4.6;83.4;;;;;;;;;
2021/12/15 21:30:10;;;;;;;;;;;4.5;82.9;;;;;;;;;
2021/12/15 21:35:09;;;;;;;;;;;4.5;82.8;;;;;;;;;
2021/12/15 21:40:08;;;;;;;;;;;4.6;81.3;;;;;;;;;
2021/12/15 21:45:09;;;;;;;;;;;4.7;80.5;;;;;;;;;
2021/12/15 21:50:08;;;;;;;;;;;4.7;80.8;;;;;;;;;
2021/12/15 21:55:09;;;;;;;;;;;4.7;79.7;;;;;;;;;
2021/12/15 22:00:08;;;;;;;;;;;4.7;80.0;;;;;;;;;
2021/12/15 22:05:08;;;;;;;;;;;4.6;81.4;;;;;;;;;
2021/12/15 22:10:09;;;;;;;;;;;4.7;81.4;;;;;;;;;
2021/12/15 22:15:08;;;;;;;;;;;4.7;81.7;;;;;;;;;
2021/12/15 22:20:11;;;;;;;;;;;4.7;81.8;;;;;;;;;
2021/12/15 22:25:08;;;;;;;;;;;4.6;81.5;;;;;;;;;
2021/12/15 22:30:08;;;;;;;;;;;4.5;82.5;;;;;;;;;
2021/12/15 22:35:07;;;;;;;;;;;4.6;81.8;;;;;;;;;
2021/12/15 22:40:10;;;;;;;;;;;4.6;81.9;;;;;;;;;
2021/12/15 22:45:09;;;;;;;;;;;4.6;81.5;;;;;;;;;
2021/12/15 22:50:09;;;;;;;;;;;4.7;81.6;;;;;;;;;
2021/12/15 22:55:09;;;;;;;;;;;4.6;81.4;;;;;;;;;
2021/12/15 23:00:13;;;;;;;;;;;4.6;81.6;;;;;;;;;
2021/12/15 23:05:08;;;;;;;;;;;4.6;81.3;;;;;;;;;
2021/12/15 23:10:07;;;;;;;;;;;4.5;81.6;;;;;;;;;
2021/12/15 23:15:09;;;;;;;;;;;4.5;81.9;;;;;;;;;
2021/12/15 23:20:09;;;;;;;;;;;4.4;81.7;;;;;;;;;
2021/12/15 23:25:09;;;;;;;;;;;4.5;82.2;;;;;;;;;
2021/12/15 23:30:10;;;;;;;;;;;4.3;82.1;;;;;;;;;
2021/12/15 23:35:25;;;;;;;;;;;4.4;82.3;;;;;;;;;
2021/12/15 23:40:43;;;;;;;;;;;4.4;82.1;;;;;;;;;
